Time,TemperatureF,DewpointF,PressureIn,WindDirection,WindDirectionDegrees,WindSpeedMPH,WindSpeedGustMPH,Humidity,HourlyPrecipIn,Conditions,Clouds,dailyrainin,SoftwareType,DateUTC
2013-05-21 00:01:00,68.6,64.0,29.85,South,184,0.0,-999.0,85,-99.99,,,0.00,weatherlink.com 1.10,2013-05-21 04:01:00,
2013-05-21 00:17:00,69.1,63.0,29.89,WNW,284,23.0,-999.0,82,-99.99,,,0.00,weatherlink.com 1.10,2013-05-21 04:17:00,
2013-05-21 00:32:00,68.6,63.0,29.88,North,349,1.0,-999.0,81,-99.99,,,0.02,weatherlink.com 1.10,2013-05-21 04:32:00,
2013-05-21 00:47:00,66.8,62.0,29.88,NNW,332,0.0,-999.0,83,-99.99,,,0.03,weatherlink.com 1.10,2013-05-21 04:47:00,
2013-05-21 01:02:00,66.0,61.0,29.85,North,355,0.0,-999.0,84,-99.99,,,0.03,weatherlink.com 1.10,2013-05-21 05:02:00,
2013-05-21 01:17:00,65.3,60.0,29.84,North,355,0.0,-999.0,84,-99.99,,,0.03,weatherlink.com 1.10,2013-05-21 05:17:00,
2013-05-21 01:32:00,63.9,59.0,29.84,ESE,119,0.0,-999.0,84,-99.99,,,0.03,weatherlink.com 1.10,2013-05-21 05:32:00,
2013-05-21 01:47:00,62.9,59.0,29.85,SE,146,0.0,-999.0,86,-99.99,,,0.03,weatherlink.com 1.10,2013-05-21 05:47:00,
2013-05-21 02:02:00,62.8,59.0,29.85,SSE,148,0.0,-999.0,86,-99.99,,,0.03,weatherlink.com 1.10,2013-05-21 06:02:00,
2013-05-21 02:17:00,62.2,58.0,29.84,SE,146,0.0,-999.0,87,-99.99,,,0.03,weatherlink.com 1.10,2013-05-21 06:17:00,
2013-05-21 02:32:00,62.2,58.0,29.84,SSE,148,0.0,-999.0,87,-99.99,,,0.03,weatherlink.com 1.10,2013-05-21 06:32:00,
2013-05-21 02:47:00,62.8,59.0,29.84,SSE,163,0.0,-999.0,87,-99.99,,,0.03,weatherlink.com 1.10,2013-05-21 06:47:00,
2013-05-21 03:17:00,63.7,60.0,29.84,South,171,0.0,-999.0,87,-99.99,,,0.03,weatherlink.com 1.10,2013-05-21 07:17:00,
2013-05-21 03:32:00,63.9,60.0,29.83,SSE,163,0.0,-999.0,87,-99.99,,,0.03,weatherlink.com 1.10,2013-05-21 07:32:00,
2013-05-21 03:47:00,63.9,60.0,29.82,South,173,7.0,-999.0,86,-99.99,,,0.03,weatherlink.com 1.10,2013-05-21 07:47:00,
2013-05-21 04:02:00,63.7,60.0,29.82,SSE,150,5.0,-999.0,86,-99.99,,,0.03,weatherlink.com 1.10,2013-05-21 08:02:00,
2013-05-21 04:17:00,63.7,59.0,29.81,SSE,161,5.0,-999.0,85,-99.99,,,0.03,weatherlink.com 1.10,2013-05-21 08:17:00,
2013-05-21 04:32:00,63.6,59.0,29.82,South,169,4.0,-999.0,85,-99.99,,,0.03,weatherlink.com 1.10,2013-05-21 08:32:00,
2013-05-21 04:47:00,63.4,59.0,29.82,South,169,5.0,-999.0,85,-99.99,,,0.03,weatherlink.com 1.10,2013-05-21 08:47:00,
2013-05-21 05:02:00,63.5,59.0,29.82,SSE,165,7.0,-999.0,85,-99.99,,,0.03,weatherlink.com 1.10,2013-05-21 09:02:00,
2013-05-21 05:17:00,63.5,59.0,29.82,SSE,158,5.0,-999.0,85,-99.99,,,0.03,weatherlink.com 1.10,2013-05-21 09:17:00,
2013-05-21 05:32:00,63.5,59.0,29.82,SSE,165,0.0,-999.0,85,-99.99,,,0.03,weatherlink.com 1.10,2013-05-21 09:32:00,
2013-05-21 05:47:00,63.4,59.0,29.82,SSE,167,5.0,-999.0,85,-99.99,,,0.03,weatherlink.com 1.10,2013-05-21 09:47:00,
2013-05-21 06:02:00,63.4,59.0,29.82,South,179,0.0,-999.0,85,-99.99,,,0.03,weatherlink.com 1.10,2013-05-21 10:02:00,
2013-05-21 06:17:00,63.6,59.0,29.83,South,180,3.0,-999.0,86,-99.99,,,0.03,weatherlink.com 1.10,2013-05-21 10:17:00,
2013-05-21 06:32:00,65.1,60.0,29.83,SSW,192,8.0,-999.0,84,-99.99,,,0.03,weatherlink.com 1.10,2013-05-21 10:32:00,
2013-05-21 06:47:00,66.5,61.0,29.83,South,185,3.0,-999.0,83,-99.99,,,0.03,weatherlink.com 1.10,2013-05-21 10:47:00,
2013-05-21 07:02:00,67.2,62.0,29.83,SSW,196,0.0,-999.0,84,-99.99,,,0.03,weatherlink.com 1.10,2013-05-21 11:02:00,
2013-05-21 07:17:00,68.2,63.0,29.83,SSW,194,5.0,-999.0,84,-99.99,,,0.03,weatherlink.com 1.10,2013-05-21 11:17:00,
2013-05-21 07:32:00,69.0,64.0,29.83,SSW,194,3.0,-999.0,85,-99.99,,,0.03,weatherlink.com 1.10,2013-05-21 11:32:00,
2013-05-21 07:47:00,71.2,66.0,29.83,SW,216,5.0,-999.0,84,-99.99,,,0.03,weatherlink.com 1.10,2013-05-21 11:47:00,
2013-05-21 08:02:00,72.1,67.0,29.84,SSW,207,6.0,-999.0,83,-99.99,,,0.03,weatherlink.com 1.10,2013-05-21 12:02:00,
2013-05-21 08:17:00,72.8,67.0,29.84,SSW,202,8.0,-999.0,82,-99.99,,,0.03,weatherlink.com 1.10,2013-05-21 12:17:00,
2013-05-21 08:32:00,73.6,68.0,29.83,SSW,206,8.0,-999.0,83,-99.99,,,0.03,weatherlink.com 1.10,2013-05-21 12:32:00,
2013-05-21 08:47:00,74.5,69.0,29.83,SSW,205,7.0,-999.0,82,-99.99,,,0.03,weatherlink.com 1.10,2013-05-21 12:47:00,
2013-05-21 09:02:00,75.3,70.0,29.84,SW,227,3.0,-999.0,82,-99.99,,,0.03,weatherlink.com 1.10,2013-05-21 13:02:00,
2013-05-21 09:17:00,75.9,70.0,29.83,WSW,240,4.0,-999.0,81,-99.99,,,0.03,weatherlink.com 1.10,2013-05-21 13:17:00,
2013-05-21 09:32:00,76.5,70.0,29.83,SW,232,4.0,-999.0,80,-99.99,,,0.03,weatherlink.com 1.10,2013-05-21 13:32:00,
2013-05-21 09:48:00,77.4,70.0,29.83,SW,232,13.0,-999.0,79,-99.99,,,0.03,weatherlink.com 1.10,2013-05-21 13:48:00,
2013-05-21 10:03:00,76.2,70.0,29.82,WSW,242,8.0,-999.0,80,-99.99,,,0.03,weatherlink.com 1.10,2013-05-21 14:03:00,
2013-05-21 10:18:00,77.9,71.0,29.81,West,259,5.0,-999.0,79,-99.99,,,0.03,weatherlink.com 1.10,2013-05-21 14:18:00,
2013-05-21 10:33:00,77.8,70.0,29.82,SW,226,6.0,-999.0,78,-99.99,,,0.03,weatherlink.com 1.10,2013-05-21 14:33:00,
2013-05-21 10:48:00,78.9,72.0,29.82,SSW,196,1.0,-999.0,78,-99.99,,,0.03,weatherlink.com 1.10,2013-05-21 14:48:00,
2013-05-21 11:03:00,79.8,71.0,29.81,SW,229,0.0,-999.0,75,-99.99,,,0.03,weatherlink.com 1.10,2013-05-21 15:03:00,
2013-05-21 11:18:00,80.8,71.0,29.81,SW,227,4.0,-999.0,72,-99.99,,,0.03,weatherlink.com 1.10,2013-05-21 15:18:00,
2013-05-21 11:33:00,81.2,71.0,29.81,West,261,0.0,-999.0,71,-99.99,,,0.03,weatherlink.com 1.10,2013-05-21 15:33:00,
2013-05-21 11:48:00,81.1,70.0,29.81,WSW,246,7.0,-999.0,68,-99.99,,,0.03,weatherlink.com 1.10,2013-05-21 15:48:00,
2013-05-21 12:03:00,80.3,70.0,29.81,WSW,251,3.0,-999.0,71,-99.99,,,0.03,weatherlink.com 1.10,2013-05-21 16:03:00,
2013-05-21 12:18:00,81.8,71.0,29.80,SSW,207,6.0,-999.0,69,-99.99,,,0.03,weatherlink.com 1.10,2013-05-21 16:18:00,
2013-05-21 12:33:00,81.7,70.0,29.79,SW,219,5.0,-999.0,67,-99.99,,,0.03,weatherlink.com 1.10,2013-05-21 16:33:00,
2013-05-21 12:48:00,82.7,70.0,29.79,SW,227,6.0,-999.0,66,-99.99,,,0.03,weatherlink.com 1.10,2013-05-21 16:48:00,
2013-05-21 13:03:00,81.5,70.0,29.78,West,260,2.0,-999.0,67,-99.99,,,0.03,weatherlink.com 1.10,2013-05-21 17:03:00,
2013-05-21 13:18:00,81.9,70.0,29.78,South,190,2.0,-999.0,68,-99.99,,,0.03,weatherlink.com 1.10,2013-05-21 17:18:00,
2013-05-21 13:33:00,82.7,71.0,29.77,WSW,246,3.0,-999.0,67,-99.99,,,0.03,weatherlink.com 1.10,2013-05-21 17:33:00,
2013-05-21 13:48:00,82.8,71.0,29.76,WSW,249,0.0,-999.0,67,-99.99,,,0.03,weatherlink.com 1.10,2013-05-21 17:48:00,
2013-05-21 14:03:00,83.8,71.0,29.75,SW,234,2.0,-999.0,65,-99.99,,,0.03,weatherlink.com 1.10,2013-05-21 18:03:00,
2013-05-21 14:18:00,83.5,71.0,29.74,SSW,196,0.0,-999.0,65,-99.99,,,0.03,weatherlink.com 1.10,2013-05-21 18:18:00,
2013-05-21 14:33:00,85.0,68.0,29.74,SSW,192,12.0,-999.0,56,-99.99,,,0.03,weatherlink.com 1.10,2013-05-21 18:33:00,
2013-05-21 14:48:00,85.6,69.0,29.73,South,188,4.0,-999.0,57,-99.99,,,0.03,weatherlink.com 1.10,2013-05-21 18:48:00,
2013-05-21 15:03:00,86.2,68.0,29.73,SSW,207,11.0,-999.0,55,-99.99,,,0.03,weatherlink.com 1.10,2013-05-21 19:03:00,
2013-05-21 15:18:00,86.6,69.0,29.73,WSW,253,9.0,-999.0,56,-99.99,,,0.03,weatherlink.com 1.10,2013-05-21 19:18:00,
2013-05-21 15:33:00,86.7,68.0,29.73,SW,214,1.0,-999.0,53,-99.99,,,0.03,weatherlink.com 1.10,2013-05-21 19:33:00,
2013-05-21 15:48:00,87.5,67.0,29.73,SSW,198,6.0,-999.0,51,-99.99,,,0.03,weatherlink.com 1.10,2013-05-21 19:48:00,
2013-05-21 16:03:00,86.9,69.0,29.71,SSW,213,10.0,-999.0,55,-99.99,,,0.03,weatherlink.com 1.10,2013-05-21 20:03:00,
2013-05-21 16:18:00,87.2,68.0,29.71,West,280,6.0,-999.0,53,-99.99,,,0.03,weatherlink.com 1.10,2013-05-21 20:18:00,
2013-05-21 16:33:00,86.5,68.0,29.71,WSW,240,11.0,-999.0,55,-99.99,,,0.03,weatherlink.com 1.10,2013-05-21 20:33:00,
2013-05-21 16:48:00,85.9,68.0,29.71,SSW,207,8.0,-999.0,56,-99.99,,,0.03,weatherlink.com 1.10,2013-05-21 20:48:00,
2013-05-21 17:03:00,85.3,68.0,29.71,WSW,238,12.0,-999.0,57,-99.99,,,0.03,weatherlink.com 1.10,2013-05-21 21:03:00,
2013-05-21 17:18:00,84.9,69.0,29.71,SW,236,3.0,-999.0,59,-99.99,,,0.03,weatherlink.com 1.10,2013-05-21 21:18:00,
2013-05-21 17:33:00,84.5,69.0,29.72,WSW,238,10.0,-999.0,59,-99.99,,,0.03,weatherlink.com 1.10,2013-05-21 21:33:00,
2013-05-21 17:48:00,83.7,68.0,29.71,WSW,246,7.0,-999.0,60,-99.99,,,0.03,weatherlink.com 1.10,2013-05-21 21:48:00,
2013-05-21 18:18:00,81.6,70.0,29.71,SW,234,7.0,-999.0,67,-99.99,,,0.03,weatherlink.com 1.10,2013-05-21 22:18:00,
2013-05-21 18:33:00,81.3,68.0,29.71,WNW,286,5.0,-999.0,65,-99.99,,,0.03,weatherlink.com 1.10,2013-05-21 22:33:00,
2013-05-21 18:49:00,80.6,68.0,29.71,SW,235,3.0,-999.0,65,-99.99,,,0.03,weatherlink.com 1.10,2013-05-21 22:49:00,
2013-05-21 19:04:00,80.0,67.0,29.71,West,264,8.0,-999.0,65,-99.99,,,0.03,weatherlink.com 1.10,2013-05-21 23:04:00,
2013-05-21 19:19:00,79.5,67.0,29.70,WSW,240,2.0,-999.0,66,-99.99,,,0.03,weatherlink.com 1.10,2013-05-21 23:19:00,
2013-05-21 19:34:00,78.8,66.0,29.71,WSW,245,0.0,-999.0,64,-99.99,,,0.03,weatherlink.com 1.10,2013-05-21 23:34:00,
2013-05-21 19:49:00,78.0,65.0,29.71,SW,221,5.0,-999.0,65,-99.99,,,0.03,weatherlink.com 1.10,2013-05-21 23:49:00,
2013-05-21 20:04:00,75.9,67.0,29.74,SSW,209,4.0,-999.0,73,-99.99,,,0.05,weatherlink.com 1.10,2013-05-22 00:04:00,
2013-05-21 20:19:00,71.3,63.0,29.72,WSW,256,0.0,-999.0,76,-99.99,,,0.07,weatherlink.com 1.10,2013-05-22 00:19:00,
2013-05-21 20:34:00,69.5,63.0,29.74,SSW,209,6.0,-999.0,80,-99.99,,,0.07,weatherlink.com 1.10,2013-05-22 00:34:00,
2013-05-21 20:49:00,68.7,64.0,29.75,SSW,205,4.0,-999.0,84,-99.99,,,0.09,weatherlink.com 1.10,2013-05-22 00:49:00,
2013-05-21 21:04:00,68.7,64.0,29.74,West,268,3.0,-999.0,84,-99.99,,,0.09,weatherlink.com 1.10,2013-05-22 01:04:00,
2013-05-21 21:19:00,68.8,64.0,29.73,SW,225,0.0,-999.0,84,-99.99,,,0.09,weatherlink.com 1.10,2013-05-22 01:19:00,
2013-05-21 21:34:00,68.6,64.0,29.73,WNW,291,4.0,-999.0,84,-99.99,,,0.09,weatherlink.com 1.10,2013-05-22 01:34:00,
2013-05-21 21:49:00,68.2,64.0,29.73,WNW,303,0.0,-999.0,86,-99.99,,,0.09,weatherlink.com 1.10,2013-05-22 01:49:00,
2013-05-21 22:04:00,67.4,63.0,29.74,WNW,292,0.0,-999.0,86,-99.99,,,0.09,weatherlink.com 1.10,2013-05-22 02:04:00,
2013-05-21 22:19:00,66.9,63.0,29.73,WNW,292,0.0,-999.0,87,-99.99,,,0.09,weatherlink.com 1.10,2013-05-22 02:19:00,
2013-05-21 22:34:00,66.1,62.0,29.74,SW,235,0.0,-999.0,87,-99.99,,,0.09,weatherlink.com 1.10,2013-05-22 02:34:00,
2013-05-21 22:49:00,65.3,61.0,29.74,SSW,209,0.0,-999.0,87,-99.99,,,0.09,weatherlink.com 1.10,2013-05-22 02:49:00,
2013-05-21 23:04:00,65.2,61.0,29.73,SSW,207,0.0,-999.0,87,-99.99,,,0.09,weatherlink.com 1.10,2013-05-22 03:04:00,
2013-05-21 23:19:00,65.1,61.0,29.73,SSW,207,0.0,-999.0,87,-99.99,,,0.09,weatherlink.com 1.10,2013-05-22 03:19:00,
2013-05-21 23:34:00,64.5,61.0,29.74,SSW,207,0.0,-999.0,87,-99.99,,,0.09,weatherlink.com 1.10,2013-05-22 03:34:00,
2013-05-21 23:49:00,64.9,61.0,29.74,SSW,192,0.0,-999.0,87,-99.99,,,0.09,weatherlink.com 1.10,2013-05-22 03:49:00,